Haverhill, Massachusetts
Traffic Map
Current Weather Conditions
Haverhill, Massachusetts
Clear
Clear
49°
Feels Like: 47°
Wind Chill: 47° Ceiling: Unl
Heat Index: 49° Visibility: 10mi
Dew Point: 44° Wind: 5mph
Humidity: 83% Direction: 200° (SSW)
Pressure: 30.25in Gusts: 0mph
Raw Report DataKLWM 190654Z AUTO 20004KT 10SM CLR 09/07 A3025 RMK AO2 SLP243 T00940067
Traffic Incident Summary
Active as of:
Severity:
Category:
InformationThere was an issue retrieving the traffic information for this location. Please try a different location or try again shortly.
Advertisements